Bentonville, AR (72712)

3:30 PM CST on February 09, 2016 (GMT -0600)
KARBENTO2 | | Change Station
CLOSE
Current Station
Personal Weather Station
Location: Bentonville, AR
Elevation: 1289 ft
Nearby Weather Stations
Active Advisory: Fire Weather Warning

Elev 1289 ft 36.36 °N, 94.20 °W | Updated 6 seconds ago

Clear
Clear
38.3 °F
Feels Like 32 °F
N
10.0
Wind Variable Wind from NW
Gusts 18.6 mph

Today
High -- | Low -- °F
--% Chance of Precip.
Yesterday
High -- | Low -- °F
Precip. -- in
Pressure 30.16 in
Visibility 10.0 miles
Clouds Clear
Windchill 32 °F
Dew Point 6 °F
Humidity 26%
Rainfall 0.00 in
Snow Depth Not available.
7:11 AM 5:51 PM
New Moon, 2% visible
METAR KVBT 092115Z AUTO 33012G19KT 10SM CLR 03/M14 A3016 RMK AO1
Pressure 30.16 in
Visibility 10.0 miles
Clouds Clear
Windchill 32 °F
Dew Point 6 °F
Humidity 26%
Rainfall 0.00 in
Snow Depth Not available.
7:11 AM 5:51 PM
New Moon, 2% visible
METAR KVBT 092115Z AUTO 33012G19KT 10SM CLR 03/M14 A3016 RMK AO1

10-Day Weather Forecast

Almanac

Astronomy

Feb. 09, 2016 Rise Set
Actual Time
Civil Twilight
Nautical Twilight
Astronomical Twilight
Moon
Length of Visible Light
Length of Day
Tomorrow will be .
, % of the Moon is Illuminated

Today's Extremes

State Highs State Lows

Community

WunderPhotos

Upload Photos

1,891,708 photos uploaded!

WunderBlog® & News

Nearby

Air Quality

  Air Quality AQ Index Pollutant
Not available.

Snow Depth

Station Depth Elevation

Earthquake Activity

City Distance Mag. Time & Date
Minimum magnitude displayed is 2.5.

Coastal Water Temperatures

Place Temperature

Stations

Nearby Weather Stations

Station Location Temp. Windchill Dew Point Humidity Wind Precip. Elev Updated Type
                   

Watches & Warnings

Fire Weather Warning
Issued: 1:04 PM CST Feb. 9, 2016 – National Weather Service

... Red flag warning in effect until 6 PM CST this evening for
very dry and windy conditions for far northwest Arkansas...

The National Weather Service in Tulsa has issued a red flag
warning... which is in effect until 6 PM CST this evening.

* Affected area... in Arkansas... Benton... Carroll... Washington
AR... and Madison counties.

* Wind... northwesterly winds 15 to 25 mph with gusts to 35 mph.

* Humidity... afternoon humidity of 22 to 27 percent.

* Temperature... high temperatures in the upper 30s to lower 40s.

* Impacts... any fires that develop will likely spread rapidly.
Outdoor burning is not recommended.

Precautionary/preparedness actions...

* a red flag warning means that a dangerous combination of
   weather conditions and dry vegetation is expected within 24
   hours... favoring rapid growth and spread of any wildfires. The
   primary weather factors include stronger winds... lower
   humidities... and warmer temperatures.